Time;durP1;ratioP1;P1;durP2;ratioP2;P2;SDS_P1;SDS_P2;PMS_P1;PMS_P2;Temp;Humidity;BMP_temperature;BMP_pressure;BME280_temperature;BME280_humidity;BME280_pressure;Samples;Min_cycle;Max_cycle;Signal;HPM_P1;HPM_P2
2021/12/24 13:01:25;;;;;;;;;22.75;15.50;;;;;17.32;100.00;100151.25;5860549;23;47233;-87
2021/12/24 13:04:25;;;;;;;;;19.75;17.00;;;;;17.44;100.00;100141.94;5013900;28;45489;-84
2021/12/24 13:06:53;;;;;;;;;14.75;13.00;;;;;17.44;100.00;100141.94;5022502;28;45442;-87
2021/12/24 13:09:32;;;;;;;;;18.25;13.75;;;;;17.53;100.00;100144.47;5007676;28;45475;-88
2021/12/24 13:11:59;;;;;;;;;21.50;17.00;;;;;17.66;100.00;100145.91;4998834;28;45328;-87
2021/12/24 13:14:30;;;;;;;;;15.50;14.50;;;;;17.73;100.00;100139.72;5000166;28;48535;-90
2021/12/24 13:17:16;;;;;;;;;24.00;13.75;;;;;17.70;100.00;100142.72;5000185;28;45375;-88
2021/12/24 13:22:36;;;;;;;;;23.25;16.25;;;;;17.53;100.00;100135.63;4999741;28;45257;-88
2021/12/24 13:25:10;;;;;;;;;18.00;13.00;;;;;17.27;100.00;100129.56;5001574;28;45412;-88
2021/12/24 13:27:51;;;;;;;;;15.75;15.75;;;;;17.23;100.00;100137.03;5002602;28;45372;-88
2021/12/24 13:30:29;;;;;;;;;19.75;13.00;;;;;17.20;100.00;100140.03;4996858;28;45382;-89
2021/12/24 13:33:01;;;;;;;;;21.25;17.25;;;;;17.16;100.00;100125.34;4998848;28;45427;-91
2021/12/24 13:35:43;;;;;;;;;22.75;18.50;;;;;17.41;100.00;100119.09;4993556;28;45262;-89
2021/12/24 13:38:18;;;;;;;;;21.00;17.00;;;;;17.45;100.00;100114.28;5001947;28;45544;-89
2021/12/24 13:40:44;;;;;;;;;21.75;17.00;;;;;17.47;100.00;100117.63;5003212;28;45174;-89
2021/12/24 13:43:12;;;;;;;;;20.25;16.75;;;;;17.47;100.00;100117.63;5003189;28;45174;-88
2021/12/24 13:45:40;;;;;;;;;18.50;15.00;;;;;17.37;100.00;100104.41;5002687;28;45648;-87
2021/12/24 13:48:12;;;;;;;;;20.75;16.25;;;;;17.46;100.00;100116.78;5002928;28;45626;-86
2021/12/24 13:56:21;;;;;;;;;16.00;15.00;;;;;17.23;100.00;100123.69;5001531;28;45767;-87
2021/12/24 13:58:52;;;;;;;;;22.25;15.25;;;;;17.31;100.00;100122.88;4981875;28;45447;-85
2021/12/24 14:01:23;;;;;;;;;19.75;16.00;;;;;17.36;100.00;100128.59;4998092;28;45257;-85
2021/12/24 14:03:48;;;;;;;;;17.75;15.00;;;;;17.20;100.00;100113.38;5017632;28;45576;-86
2021/12/24 14:06:14;;;;;;;;;17.75;13.00;;;;;17.09;100.00;100103.81;5002166;28;45273;-85
2021/12/24 14:08:40;;;;;;;;;16.25;13.25;;;;;17.19;100.00;100101.03;5002763;28;45383;-86
2021/12/24 14:11:07;;;;;;;;;13.00;12.50;;;;;17.29;100.00;100104.38;5002676;28;45250;-87
2021/12/24 14:13:38;;;;;;;;;11.50;10.00;;;;;17.31;100.00;100101.53;4993946;28;45234;-85
2021/12/24 14:24:27;;;;;;;;;19.00;16.75;;;;;17.22;100.00;100084.66;4996236;28;45404;-85
2021/12/24 14:26:58;;;;;;;;;24.00;21.75;;;;;17.15;100.00;100088.97;4980596;28;45389;-86
2021/12/24 14:29:34;;;;;;;;;20.25;17.50;;;;;17.18;100.00;100097.50;5005195;28;45407;-85
2021/12/24 14:32:02;;;;;;;;;23.25;18.00;;;;;17.14;100.00;100100.66;5006755;28;45352;-85
2021/12/24 14:34:41;;;;;;;;;24.25;17.50;;;;;16.99;100.00;100079.09;5010398;28;45521;-85
2021/12/24 14:37:19;;;;;;;;;19.75;17.75;;;;;17.07;100.00;100083.63;4987723;28;46264;-87
2021/12/24 14:39:48;;;;;;;;;23.75;18.75;;;;;17.03;100.00;100088.44;4982603;28;45429;-85
2021/12/24 14:42:20;;;;;;;;;17.25;15.00;;;;;16.99;100.00;100087.09;5001016;28;45248;-86
2021/12/24 14:44:49;;;;;;;;;25.00;19.00;;;;;17.01;100.00;100073.59;5002191;28;45414;-85
2021/12/24 14:47:25;;;;;;;;;20.00;16.25;;;;;17.01;100.00;100058.44;5017131;28;47243;-85
2021/12/24 14:50:00;;;;;;;;;22.00;17.00;;;;;17.01;100.00;100049.59;5001854;28;45165;-85
2021/12/24 14:52:25;;;;;;;;;23.75;18.75;;;;;16.93;100.00;100063.75;5002291;28;45249;-86
2021/12/24 14:55:15;;;;;;;;;28.00;19.75;;;;;17.02;100.00;100075.28;5000723;28;45317;-85
2021/12/24 14:57:49;;;;;;;;;26.75;19.00;;;;;16.91;100.00;100073.72;5002003;28;46321;-85
2021/12/24 15:00:18;;;;;;;;;18.50;17.25;;;;;16.97;100.00;100067.75;5002009;28;45264;-86
2021/12/24 15:02:47;;;;;;;;;29.50;20.25;;;;;16.90;100.00;100065.88;5001609;28;45421;-86
2021/12/24 15:05:30;;;;;;;;;26.50;21.00;;;;;16.94;100.00;100056.56;5001668;28;45174;-89
2021/12/24 15:07:57;;;;;;;;;17.00;15.00;;;;;16.87;100.00;100063.53;5000549;28;47279;-87
2021/12/24 15:10:23;;;;;;;;;29.50;21.50;;;;;16.87;100.00;100069.69;5017114;28;45406;-87
2021/12/24 15:12:59;;;;;;;;;26.25;19.75;;;;;16.81;100.00;100068.53;4998644;28;45449;-87
2021/12/24 15:15:27;;;;;;;;;28.75;23.00;;;;;16.83;100.00;100073.69;4982120;28;45398;-87
2021/12/24 15:17:52;;;;;;;;;26.50;21.25;;;;;16.80;100.00;100072.19;5004484;28;46199;-87
2021/12/24 15:20:20;;;;;;;;;25.00;20.50;;;;;16.79;100.00;100075.84;4997996;28;45440;-87
2021/12/24 15:22:46;;;;;;;;;28.75;24.25;;;;;16.67;100.00;100076.25;5005485;28;46637;-87
2021/12/24 15:25:13;;;;;;;;;24.33;18.67;;;;;16.64;100.00;100073.94;5009854;28;45239;-87
2021/12/24 15:27:41;;;;;;;;;23.50;19.75;;;;;16.65;100.00;100062.28;5014956;28;46466;-87
2021/12/24 15:30:10;;;;;;;;;23.75;21.75;;;;;16.70;100.00;100062.63;5001857;28;45556;-86
2021/12/24 15:32:36;;;;;;;;;29.75;18.25;;;;;16.64;100.00;100071.28;5014710;28;45228;-87
2021/12/24 15:35:03;;;;;;;;;21.75;18.00;;;;;16.55;100.00;100066.84;5013910;28;45493;-87
2021/12/24 15:37:29;;;;;;;;;23.50;21.50;;;;;16.52;100.00;100075.16;4988428;28;45516;-87
2021/12/24 15:39:57;;;;;;;;;28.00;19.75;;;;;16.56;100.00;100076.53;5029667;28;45695;-87
2021/12/24 15:42:25;;;;;;;;;29.00;20.25;;;;;16.58;100.00;100087.84;4981839;28;45344;-87
2021/12/24 15:44:51;;;;;;;;;24.00;20.75;;;;;16.53;100.00;100092.81;4994663;28;45463;-87
2021/12/24 15:47:17;;;;;;;;;25.25;21.00;;;;;16.60;100.00;100084.03;5015779;28;47879;-87
2021/12/24 15:49:46;;;;;;;;;22.50;19.75;;;;;16.55;100.00;100090.84;5001917;28;45194;-87
2021/12/24 15:52:11;;;;;;;;;27.50;19.50;;;;;16.49;100.00;100084.31;5003745;28;45341;-87
2021/12/24 15:54:37;;;;;;;;;25.00;15.75;;;;;16.44;100.00;100082.13;4989203;28;45253;-86
2021/12/24 15:57:06;;;;;;;;;32.25;19.75;;;;;16.41;100.00;100087.75;5002741;28;46732;-87
2021/12/24 15:59:33;;;;;;;;;23.00;19.00;;;;;16.36;100.00;100086.56;5001504;28;46127;-87
2021/12/24 16:01:59;;;;;;;;;33.50;27.00;;;;;16.35;100.00;100085.72;5002846;28;45493;-87
2021/12/24 16:04:25;;;;;;;;;27.50;20.50;;;;;16.24;100.00;100075.31;4989394;28;45391;-86
2021/12/24 16:06:53;;;;;;;;;32.50;24.25;;;;;16.27;100.00;100076.84;5002418;28;46180;-87
2021/12/24 16:09:23;;;;;;;;;34.00;24.25;;;;;16.22;100.00;100084.44;5004104;28;45150;-87
2021/12/24 16:11:50;;;;;;;;;39.00;28.00;;;;;16.31;100.00;100075.53;5007504;28;45500;-86
2021/12/24 16:14:16;;;;;;;;;36.50;28.75;;;;;16.24;100.00;100072.66;4993267;28;45574;-87
2021/12/24 16:16:44;;;;;;;;;41.00;28.00;;;;;16.33;100.00;100079.72;5004238;28;45340;-87
2021/12/24 16:19:14;;;;;;;;;36.00;28.25;;;;;16.50;100.00;100085.13;5006101;28;45260;-87
2021/12/24 16:21:41;;;;;;;;;37.75;25.00;;;;;16.43;100.00;100079.59;5016735;28;45289;-87
2021/12/24 16:24:07;;;;;;;;;34.50;24.25;;;;;16.43;100.00;100079.59;5016136;28;45643;-87
2021/12/24 16:26:34;;;;;;;;;26.00;22.75;;;;;16.35;100.00;100076.91;5019777;28;48290;-86
2021/12/24 16:28:59;;;;;;;;;36.50;25.50;;;;;16.28;100.00;100071.38;5035951;28;45804;-87
2021/12/24 16:31:25;;;;;;;;;27.50;23.00;;;;;16.32;100.00;100069.19;5023348;28;44587;-87
2021/12/24 16:33:51;;;;;;;;;27.25;23.50;;;;;16.40;100.00;100070.09;5021630;28;44792;-87
2021/12/24 16:36:19;;;;;;;;;25.00;22.75;;;;;16.38;100.00;100056.09;5009871;28;45370;-87
2021/12/24 16:38:44;;;;;;;;;34.25;26.00;;;;;16.40;100.00;100069.25;5015315;28;45804;-87
2021/12/24 16:41:12;;;;;;;;;34.00;27.75;;;;;16.40;100.00;100055.94;5011635;28;45340;-86
2021/12/24 16:43:38;;;;;;;;;33.25;26.50;;;;;16.38;100.00;100049.94;4991327;28;45336;-86
2021/12/24 16:46:04;;;;;;;;;35.00;28.50;;;;;16.41;100.00;100044.28;5016674;28;48364;-86
2021/12/24 16:48:29;;;;;;;;;29.00;25.50;;;;;16.30;100.00;100034.72;5001749;28;45217;-86
2021/12/24 16:50:55;;;;;;;;;35.00;24.75;;;;;16.38;100.00;100029.47;5003443;28;45219;-86
2021/12/24 16:53:20;;;;;;;;;34.00;24.00;;;;;16.46;100.00;100034.00;5003805;28;45210;-85
2021/12/24 16:55:48;;;;;;;;;29.75;23.50;;;;;16.48;100.00;100031.19;5003873;28;46420;-87
2021/12/24 16:58:15;;;;;;;;;38.25;25.75;;;;;16.48;100.00;100013.31;4990331;28;45363;-86
2021/12/24 17:00:45;;;;;;;;;31.50;22.75;;;;;16.52;100.00;100003.19;5013338;28;45300;-87
2021/12/24 17:03:11;;;;;;;;;38.00;25.75;;;;;16.45;100.00;100001.19;4995501;28;45264;-86
2021/12/24 17:05:36;;;;;;;;;42.75;28.25;;;;;16.28;100.00;100001.25;5000984;28;45361;-87
2021/12/24 17:08:04;;;;;;;;;39.25;29.75;;;;;16.41;100.00;100001.63;5000883;28;45334;-85
2021/12/24 17:10:34;;;;;;;;;32.75;24.50;;;;;16.46;100.00;100010.84;5001381;28;45412;-86
2021/12/24 17:13:00;;;;;;;;;36.75;26.00;;;;;16.51;100.00;100017.50;5001518;28;45526;-86
2021/12/24 17:15:28;;;;;;;;;32.00;26.50;;;;;16.69;100.00;100029.78;5000642;28;46404;-87
2021/12/24 17:17:53;;;;;;;;;40.75;28.00;;;;;16.75;100.00;100023.81;4999066;28;45465;-87
2021/12/24 17:20:22;;;;;;;;;37.50;30.25;;;;;16.68;100.00;100019.28;5015618;28;45878;-87
2021/12/24 17:22:48;;;;;;;;;34.75;27.50;;;;;16.74;100.00;100011.50;4999287;28;45412;-86
2021/12/24 17:25:19;;;;;;;;;31.00;25.75;;;;;16.74;100.00;100018.66;4999262;28;47186;-87
2021/12/24 17:27:44;;;;;;;;;25.75;23.25;;;;;16.73;100.00;100017.00;5000184;28;45466;-86
2021/12/24 17:30:14;;;;;;;;;40.25;25.75;;;;;16.88;100.00;100006.53;4999414;28;45442;-86
2021/12/24 17:32:40;;;;;;;;;32.50;28.75;;;;;16.87;100.00;100004.88;5006058;28;45309;-86
2021/12/24 17:35:11;;;;;;;;;37.50;27.25;;;;;16.70;100.00;99990.66;4994751;28;45592;-87
2021/12/24 17:37:39;;;;;;;;;33.25;26.50;;;;;16.79;100.00;99993.19;4985303;28;45842;-87
2021/12/24 17:40:07;;;;;;;;;43.75;31.00;;;;;16.82;100.00;99992.88;4999896;28;45414;-87
2021/12/24 17:42:34;;;;;;;;;37.00;30.00;;;;;16.79;100.00;99984.34;4998691;28;45209;-87
2021/12/24 17:44:59;;;;;;;;;34.25;25.25;;;;;16.77;100.00;99979.16;4999653;28;45501;-87
2021/12/24 17:47:25;;;;;;;;;41.75;32.00;;;;;16.81;100.00;99995.69;4999359;28;45412;-87
2021/12/24 17:49:53;;;;;;;;;45.75;31.00;;;;;16.80;100.00;99988.69;4999404;28;45329;-87
2021/12/24 17:52:20;;;;;;;;;36.50;30.00;;;;;16.77;100.00;99984.50;4999656;28;45269;-87
2021/12/24 17:54:46;;;;;;;;;32.75;27.00;;;;;16.81;100.00;99999.19;5014541;28;47006;-87
2021/12/24 17:57:11;;;;;;;;;38.00;29.00;;;;;16.85;100.00;100005.03;5014439;28;45798;-84
2021/12/24 17:59:37;;;;;;;;;41.50;35.25;;;;;16.85;100.00;100007.69;4999751;28;45127;-84
2021/12/24 18:02:03;;;;;;;;;36.00;29.00;;;;;16.81;100.00;100001.03;4999386;28;45249;-87
2021/12/24 18:04:31;;;;;;;;;45.00;34.50;;;;;16.85;100.00;99999.69;5014281;28;46096;-87
2021/12/24 18:07:00;;;;;;;;;49.50;33.50;;;;;16.92;100.00;100000.72;4999379;28;45353;-87
2021/12/24 18:09:33;;;;;;;;;42.75;37.25;;;;;16.93;100.00;99997.06;4999958;28;45162;-86
2021/12/24 18:12:00;;;;;;;;;43.75;34.50;;;;;16.99;100.00;100001.75;5002157;28;45319;-86
2021/12/24 18:14:25;;;;;;;;;43.75;36.50;;;;;17.00;100.00;99997.25;5005176;28;47663;-87
2021/12/24 18:16:51;;;;;;;;;49.75;36.75;;;;;17.00;100.00;99999.91;5002078;28;45671;-87
2021/12/24 18:19:18;;;;;;;;;52.00;37.50;;;;;16.88;100.00;99999.38;5003131;28;45301;-87
2021/12/24 18:21:44;;;;;;;;;40.00;31.25;;;;;16.96;100.00;99999.38;5001486;28;45624;-86
2021/12/24 18:24:10;;;;;;;;;41.50;35.50;;;;;16.92;100.00;99989.22;5001416;28;46965;-87
2021/12/24 18:26:35;;;;;;;;;52.25;39.50;;;;;16.83;100.00;99980.38;5002656;28;45422;-87
2021/12/24 18:29:05;;;;;;;;;53.00;38.25;;;;;16.86;100.00;99964.03;5002844;28;45350;-87
2021/12/24 18:31:33;;;;;;;;;56.75;43.00;;;;;16.82;100.00;99968.88;5018064;28;46318;-87
2021/12/24 18:34:02;;;;;;;;;57.00;39.00;;;;;16.75;100.00;99988.34;5002535;28;45545;-88
2021/12/24 18:36:27;;;;;;;;;54.25;41.00;;;;;16.63;100.00;99995.78;5001720;28;45576;-88
2021/12/24 18:38:54;;;;;;;;;58.75;46.25;;;;;16.61;100.00;100005.78;5003006;28;45580;-88
2021/12/24 18:41:20;;;;;;;;;62.25;47.75;;;;;16.56;100.00;100015.22;5003191;28;45197;-88
2021/12/24 18:43:46;;;;;;;;;57.25;41.50;;;;;16.41;100.00;100013.13;5018344;28;48258;-88
2021/12/24 18:46:12;;;;;;;;;52.00;38.75;;;;;16.43;100.00;100011.16;5003612;28;45339;-87
2021/12/24 18:48:37;;;;;;;;;54.00;38.50;;;;;16.37;100.00;99986.97;5002272;28;45363;-87
2021/12/24 18:51:04;;;;;;;;;54.75;43.50;;;;;16.33;100.00;99985.63;5002853;28;45154;-88
2021/12/24 18:53:29;;;;;;;;;60.50;44.25;;;;;20.18;100.00;99965.41;4989333;28;45427;-85
2021/12/24 18:55:55;;;;;;;;;52.75;40.25;;;;;17.72;100.00;99967.16;5002051;28;45496;-84
2021/12/24 18:58:21;;;;;;;;;66.25;46.50;;;;;16.85;100.00;99951.69;4985131;28;45409;-83
2021/12/24 19:00:48;;;;;;;;;67.25;47.50;;;;;15.91;100.00;99956.25;4992839;28;45250;-84
2021/12/24 19:03:15;;;;;;;;;58.00;44.75;;;;;15.75;100.00;99966.81;5000247;28;47355;-84
2021/12/24 19:05:45;;;;;;;;;58.50;45.25;;;;;15.68;100.00;99971.88;5017038;28;45720;-84
2021/12/24 19:08:11;;;;;;;;;58.50;42.75;;;;;15.58;100.00;99976.47;5006594;28;45425;-84
2021/12/24 19:10:38;;;;;;;;;62.25;41.75;;;;;15.55;100.00;99972.31;4997840;28;45879;-85
2021/12/24 19:13:05;;;;;;;;;58.50;42.00;;;;;15.55;100.00;99976.78;5000774;28;48335;-85
2021/12/24 19:15:30;;;;;;;;;55.75;41.50;;;;;15.58;100.00;99971.97;5017049;28;45197;-85
2021/12/24 19:17:56;;;;;;;;;57.75;41.00;;;;;15.42;100.00;99992.25;5001573;28;45272;-85
2021/12/24 19:20:25;;;;;;;;;60.75;43.75;;;;;15.39;100.00;99971.31;5001443;28;45190;-85
2021/12/24 19:22:50;;;;;;;;;56.00;42.75;;;;;15.36;100.00;99972.44;4998983;28;46131;-84
2021/12/24 19:25:16;;;;;;;;;56.50;44.00;;;;;15.29;100.00;99976.72;5001539;28;45446;-85
2021/12/24 19:27:41;;;;;;;;;56.75;43.25;;;;;15.31;100.00;99974.69;5001694;28;45439;-85
2021/12/24 19:30:10;;;;;;;;;54.00;41.75;;;;;15.37;100.00;99978.59;5001698;28;45423;-84
2021/12/24 19:32:36;;;;;;;;;58.00;45.75;;;;;15.35;100.00;99965.44;5001277;28;47690;-85
2021/12/24 19:35:04;;;;;;;;;61.00;45.50;;;;;15.33;100.00;99967.41;5001209;28;45233;-84
2021/12/24 19:37:30;;;;;;;;;62.25;42.25;;;;;15.57;100.00;99970.31;5001468;28;45434;-84
2021/12/24 19:39:56;;;;;;;;;61.50;46.75;;;;;15.35;100.00;99960.13;5001396;28;45356;-85
2021/12/24 19:42:21;;;;;;;;;58.25;45.00;;;;;15.34;100.00;99971.75;5001302;28;46462;-84
2021/12/24 19:44:46;;;;;;;;;61.75;45.50;;;;;15.39;100.00;99969.44;5016641;28;45378;-85
2021/12/24 19:47:12;;;;;;;;;67.00;49.00;;;;;16.03;100.00;99966.47;5016260;28;45744;-84
2021/12/24 19:49:37;;;;;;;;;51.25;43.75;;;;;15.99;100.00;99967.78;5000816;28;45326;-85
2021/12/24 19:52:03;;;;;;;;;54.50;43.00;;;;;15.54;100.00;99980.44;5001037;28;45546;-85
2021/12/24 19:54:29;;;;;;;;;66.75;48.75;;;;;15.56;100.00;99981.13;5001061;28;45827;-85
2021/12/24 19:56:55;;;;;;;;;62.00;47.50;;;;;15.59;100.00;99976.31;4995434;28;45383;-85
2021/12/24 19:59:20;;;;;;;;;65.50;48.50;;;;;15.58;100.00;99965.81;4981711;28;45545;-82
2021/12/24 20:01:46;;;;;;;;;63.75;47.75;;;;;15.64;100.00;99976.69;4998453;28;47149;-82
2021/12/24 20:04:11;;;;;;;;;62.00;48.00;;;;;15.99;100.00;99970.44;4999435;28;45322;-83
2021/12/24 20:06:37;;;;;;;;;64.00;47.00;;;;;16.18;100.00;99953.41;5015956;28;45297;-83
2021/12/24 20:09:04;;;;;;;;;62.50;48.25;;;;;16.33;100.00;99962.47;5000908;28;45237;-82
2021/12/24 20:11:29;;;;;;;;;50.25;41.75;;;;;15.99;100.00;99959.81;5000748;28;45970;-83
2021/12/24 20:13:55;;;;;;;;;61.00;48.00;;;;;16.15;100.00;99969.72;5004061;28;45308;-83
2021/12/24 20:16:21;;;;;;;;;61.00;45.00;;;;;16.13;100.00;99958.38;4999665;28;45494;-83
2021/12/24 20:18:46;;;;;;;;;59.50;47.00;;;;;16.19;100.00;99962.25;5000693;28;45470;-84
2021/12/24 20:21:12;;;;;;;;;58.00;44.00;;;;;16.14;100.00;99946.72;5000571;28;45410;-83
2021/12/24 20:23:38;;;;;;;;;55.75;46.00;;;;;16.11;100.00;99933.75;5016078;28;45410;-83
2021/12/24 20:26:05;;;;;;;;;54.50;41.75;;;;;16.15;100.00;99932.41;5000815;28;45350;-84
2021/12/24 20:28:30;;;;;;;;;59.25;45.50;;;;;16.11;100.00;99943.56;4999396;28;46039;-83
2021/12/24 20:30:57;;;;;;;;;56.50;43.00;;;;;16.13;100.00;99945.06;5000538;28;46084;-83
2021/12/24 20:33:23;;;;;;;;;54.50;43.50;;;;;16.07;100.00;99949.19;5015601;28;45870;-83
2021/12/24 20:35:49;;;;;;;;;56.75;41.50;;;;;16.13;100.00;99953.03;5000169;28;45576;-83
2021/12/24 20:38:14;;;;;;;;;55.00;38.50;;;;;16.07;100.00;99945.69;5000564;28;45316;-83
2021/12/24 20:40:39;;;;;;;;;56.00;44.50;;;;;16.08;100.00;99934.88;5000468;28;46143;-83
2021/12/24 20:43:06;;;;;;;;;53.75;39.25;;;;;16.21;100.00;99944.25;4999192;28;45757;-82
2021/12/24 20:45:32;;;;;;;;;55.25;42.25;;;;;16.16;100.00;99934.09;5000437;28;45450;-82
2021/12/24 20:47:58;;;;;;;;;48.50;39.50;;;;;16.22;100.00;99937.94;4999062;28;45427;-83
2021/12/24 20:50:27;;;;;;;;;53.00;43.25;;;;;16.30;100.00;99946.78;4999969;28;45242;-83
2021/12/24 20:52:53;;;;;;;;;58.50;47.00;;;;;15.70;100.00;99949.47;5000594;28;45307;-84
2021/12/24 20:55:21;;;;;;;;;58.75;44.00;;;;;15.63;100.00;99945.75;5000558;28;45413;-84
2021/12/24 20:57:46;;;;;;;;;58.25;43.50;;;;;15.87;100.00;99934.41;5000324;28;45527;-84
2021/12/24 21:00:13;;;;;;;;;58.75;43.50;;;;;16.06;100.00;99933.38;4999010;28;47377;-84
2021/12/24 21:02:38;;;;;;;;;53.50;44.25;;;;;16.07;100.00;99935.88;4999931;28;45307;-83
2021/12/24 21:05:05;;;;;;;;;50.00;43.50;;;;;15.89;100.00;99927.13;5000278;28;45253;-84
2021/12/24 21:07:31;;;;;;;;;60.00;46.00;;;;;16.24;100.00;99938.63;5015347;28;45439;-85
2021/12/24 21:09:56;;;;;;;;;55.75;45.00;;;;;16.26;100.00;99926.81;5000104;28;46013;-84
2021/12/24 21:12:22;;;;;;;;;55.50;44.75;;;;;15.60;100.00;99935.41;4998716;28;45338;-85
2021/12/24 21:14:47;;;;;;;;;55.75;45.00;;;;;15.59;100.00;99935.56;4995791;28;45232;-84
2021/12/24 21:17:12;;;;;;;;;56.25;44.75;;;;;15.87;100.00;99926.44;4993026;28;45126;-85
2021/12/24 21:19:38;;;;;;;;;56.25;42.50;;;;;15.44;100.00;99926.44;4998196;28;47078;-84
2021/12/24 21:22:03;;;;;;;;;59.50;47.25;;;;;15.84;100.00;99915.28;5000004;28;45212;-85
2021/12/24 21:24:29;;;;;;;;;57.25;42.25;;;;;15.39;100.00;99924.22;4999979;28;45492;-85
2021/12/24 21:26:55;;;;;;;;;58.50;44.25;;;;;15.82;100.00;99923.41;4999830;28;45533;-85
2021/12/24 21:29:21;;;;;;;;;57.75;44.75;;;;;16.00;100.00;99916.19;4999772;28;45410;-85
2021/12/24 21:31:46;;;;;;;;;60.00;41.75;;;;;16.01;100.00;99912.56;4999804;28;45726;-85
2021/12/24 21:34:12;;;;;;;;;54.50;45.25;;;;;16.01;100.00;99909.06;4999607;28;45422;-85
2021/12/24 21:36:37;;;;;;;;;60.00;44.25;;;;;15.56;100.00;99917.25;4999695;28;45411;-85
2021/12/24 21:39:05;;;;;;;;;52.50;40.75;;;;;15.57;100.00;99909.09;4999611;28;46193;-85
2021/12/24 21:41:31;;;;;;;;;53.00;42.50;;;;;15.70;100.00;99912.19;5014993;28;45197;-85
2021/12/24 21:43:57;;;;;;;;;63.25;46.25;;;;;15.61;100.00;99899.81;4999666;28;45174;-85
2021/12/24 21:46:23;;;;;;;;;65.00;45.50;;;;;15.56;100.00;99896.81;5000567;28;45418;-85
2021/12/24 21:48:49;;;;;;;;;56.50;41.25;;;;;15.64;100.00;99902.19;5002806;28;45246;-85
2021/12/24 21:51:14;;;;;;;;;56.75;45.75;;;;;15.63;100.00;99905.00;5002676;28;46669;-85
2021/12/24 21:53:40;;;;;;;;;57.00;45.00;;;;;15.59;100.00;99904.47;5018109;28;45743;-85
2021/12/24 21:56:07;;;;;;;;;60.50;44.25;;;;;15.63;100.00;99907.66;5005027;28;45960;-85
2021/12/24 21:58:34;;;;;;;;;58.25;45.00;;;;;15.86;100.00;99908.78;5001340;28;48117;-86
2021/12/24 22:01:00;;;;;;;;;55.00;43.75;;;;;15.73;100.00;99908.38;5003021;28;45245;-85
2021/12/24 22:08:23;;;;;;;;;55.75;43.00;;;;;15.57;100.00;99901.09;5002499;28;45356;-86
2021/12/24 22:08:55;;;;;;;;;58.25;44.75;;;;;15.88;100.00;99905.97;5002786;28;45354;-84
2021/12/24 22:11:32;;;;;;;;;57.00;42.50;;;;;15.98;100.00;99909.34;5002760;28;45158;-86
2021/12/24 22:14:08;;;;;;;;;55.25;44.00;;;;;16.05;100.00;99919.22;4990896;28;45253;-86
2021/12/24 22:16:34;;;;;;;;;60.50;44.75;;;;;16.10;100.00;99921.41;4998101;28;45415;-86
2021/12/24 22:19:02;;;;;;;;;56.75;44.25;;;;;16.07;100.00;99911.06;4983007;28;45427;-86
2021/12/24 22:21:30;;;;;;;;;58.00;45.00;;;;;16.11;100.00;99912.44;5017976;28;45471;-86
2021/12/24 22:23:57;;;;;;;;;58.25;44.00;;;;;16.08;100.00;99918.91;5002618;28;45289;-86
2021/12/24 22:26:23;;;;;;;;;58.00;44.25;;;;;16.02;100.00;99908.06;5018166;28;45495;-86
2021/12/24 22:28:50;;;;;;;;;59.75;47.25;;;;;15.92;100.00;99915.31;5002375;28;46648;-87
2021/12/24 22:31:18;;;;;;;;;55.50;41.00;;;;;16.01;100.00;99920.53;5002887;28;45757;-85
2021/12/24 22:33:44;;;;;;;;;56.00;42.00;;;;;16.24;100.00;99923.47;5017816;28;45332;-84
2021/12/24 22:36:10;;;;;;;;;50.00;41.00;;;;;16.08;100.00;99926.06;5002610;28;45283;-86
2021/12/24 22:38:35;;;;;;;;;58.00;42.50;;;;;16.09;100.00;99928.56;5002564;28;45455;-86
2021/12/24 22:41:03;;;;;;;;;53.50;42.25;;;;;16.09;100.00;99919.75;5003110;28;45158;-85
2021/12/24 22:43:31;;;;;;;;;60.00;47.75;;;;;16.16;100.00;99928.75;5002527;28;45215;-86
2021/12/24 22:45:57;;;;;;;;;53.75;42.75;;;;;16.25;100.00;99925.13;5002355;28;45515;-87
2021/12/24 22:48:22;;;;;;;;;61.50;45.25;;;;;16.17;100.00;99935.75;5001911;28;46386;-87
2021/12/24 22:50:47;;;;;;;;;57.25;43.25;;;;;16.18;100.00;99932.09;5000914;28;45415;-86
2021/12/24 22:53:13;;;;;;;;;58.75;43.50;;;;;16.21;100.00;99917.59;5002222;28;45246;-87
2021/12/24 22:55:40;;;;;;;;;57.25;45.00;;;;;16.21;100.00;99933.59;5002314;28;45718;-87
2021/12/24 22:58:11;;;;;;;;;47.75;41.50;;;;;15.93;100.00;99922.31;4987164;28;47322;-87
2021/12/24 23:00:45;;;;;;;;;52.00;42.25;;;;;15.90;100.00;99923.47;5002062;28;45363;-87
2021/12/24 23:03:17;;;;;;;;;53.50;42.25;;;;;15.82;100.00;99915.44;5017236;28;45501;-87
2021/12/24 23:05:43;;;;;;;;;55.00;42.00;;;;;15.46;100.00;99925.31;5001715;28;45225;-86
2021/12/24 23:08:10;;;;;;;;;63.00;48.00;;;;;15.39;100.00;99945.50;5001862;28;46294;-86
2021/12/24 23:10:38;;;;;;;;;61.75;45.50;;;;;15.43;100.00;99922.09;5001975;28;45726;-85
2021/12/24 23:13:04;;;;;;;;;57.25;44.75;;;;;15.41;100.00;99930.22;4996097;28;45261;-86
2021/12/24 23:15:29;;;;;;;;;55.00;44.00;;;;;15.59;100.00;99920.44;4993252;28;45435;-86
2021/12/24 23:17:55;;;;;;;;;62.75;46.25;;;;;15.62;100.00;99930.78;5001470;28;45254;-85
2021/12/24 23:20:23;;;;;;;;;56.00;43.50;;;;;15.57;100.00;99930.38;5016824;28;45233;-85
2021/12/24 23:22:50;;;;;;;;;58.75;42.50;;;;;15.46;100.00;99935.94;5017246;28;45455;-84
2021/12/24 23:25:17;;;;;;;;;56.25;44.25;;;;;15.03;100.00;99933.22;5001678;28;45320;-84
2021/12/24 23:27:42;;;;;;;;;54.25;41.50;;;;;15.14;100.00;99930.34;5001659;28;46170;-84
2021/12/24 23:30:11;;;;;;;;;56.50;43.75;;;;;15.07;100.00;99922.13;5000214;28;46056;-84
2021/12/24 23:32:36;;;;;;;;;57.50;43.00;;;;;35.39;100.00;99901.03;5001631;28;45260;-84
2021/12/24 23:35:04;;;;;;;;;57.75;43.50;;;;;30.67;100.00;99905.53;5001208;28;45683;-84
2021/12/24 23:37:29;;;;;;;;;56.00;42.75;;;;;31.21;100.00;99900.09;5001452;28;46408;-84
2021/12/24 23:39:55;;;;;;;;;55.25;43.50;;;;;35.34;84.86;99893.63;5000016;28;45253;-84
2021/12/24 23:42:23;;;;;;;;;60.50;46.50;;;;;35.75;74.78;99896.06;5001923;28;45305;-84
2021/12/24 23:44:56;;;;;;;;;55.25;42.00;;;;;26.51;100.00;99920.56;5001546;28;45487;-84
2021/12/24 23:47:37;;;;;;;;;53.25;44.00;;;;;24.97;100.00;99920.47;5001458;28;45414;-84
2021/12/24 23:50:08;;;;;;;;;54.75;44.75;;;;;24.49;100.00;99915.47;5001376;28;45363;-84
2021/12/24 23:52:37;;;;;;;;;53.75;40.25;;;;;24.45;100.00;99922.38;5016806;28;45347;-84
2021/12/24 23:55:03;;;;;;;;;57.75;42.00;;;;;24.23;96.22;99916.41;5001190;28;45245;-84
2021/12/24 23:57:28;;;;;;;;;62.75;45.75;;;;;24.01;95.57;99897.97;4999907;28;45996;-84
2021/12/24 23:59:54;;;;;;;;;56.75;41.00;;;;;23.86;97.17;99895.50;5001145;28;45481;-84
